KAFK

Nebraska City Municipal Airport

Nebraska City, Nebraska, USA
METAR KAFK 182135Z AUTO 14003KT 10SM CLR 29/19 A3000 RMK AO2 T02940194
Observed Flight Rules
Aug-18 @ 21:35 UTC (19 minutes ago) Visual Flight Rules
Wind Visibility Clouds
140° at 3 knots 10 miles
  • Clear skies
Temperatures Readings
Current 29°C / 84°F
Dewpoint 19°C / 66°F
Humidity 55%
Altimeter 30" Hg
Pressure 1016 hPa
Elevation 354
METAR KAFK 182135Z AUTO 14003KT 10SM CLR 29/19 A3000 RMK AO2 T02940194
Observed Flight Rules
Aug-18 @ 21:35 UTC
(19 minutes ago)
VFR
Wind Visibility
140° at 3 knots 10 miles
Clouds
  • Clear skies
Temperature Dewpoint
29°C / 84°F 19°C / 66°F
Humidity Altimeter Pressure
55% 30" Hg 1016 hPa